sensor_id;sensor_type;location;lat;lon;timestamp;P1;durP1;ratioP1;P2;durP2;ratioP2
47635;SDS011;33364;50.766;15.338;2023-01-25T00:02:07;12.00;;;6.13;;
47635;SDS011;33364;50.766;15.338;2023-01-25T00:04:33;15.20;;;6.63;;
47635;SDS011;33364;50.766;15.338;2023-01-25T00:06:58;15.63;;;6.78;;
47635;SDS011;33364;50.766;15.338;2023-01-25T00:09:24;12.68;;;6.22;;
47635;SDS011;33364;50.766;15.338;2023-01-25T00:11:51;13.32;;;5.43;;
47635;SDS011;33364;50.766;15.338;2023-01-25T00:14:17;13.18;;;6.38;;
47635;SDS011;33364;50.766;15.338;2023-01-25T00:16:43;12.43;;;6.65;;
47635;SDS011;33364;50.766;15.338;2023-01-25T00:19:10;10.32;;;5.82;;
47635;SDS011;33364;50.766;15.338;2023-01-25T00:21:36;13.10;;;5.55;;
47635;SDS011;33364;50.766;15.338;2023-01-25T00:24:02;16.52;;;8.60;;
47635;SDS011;33364;50.766;15.338;2023-01-25T00:26:29;17.35;;;5.97;;
47635;SDS011;33364;50.766;15.338;2023-01-25T00:28:59;11.15;;;5.13;;
47635;SDS011;33364;50.766;15.338;2023-01-25T00:39:37;9.43;;;4.57;;
47635;SDS011;33364;50.766;15.338;2023-01-25T00:42:03;9.65;;;4.55;;
47635;SDS011;33364;50.766;15.338;2023-01-25T00:44:30;10.35;;;5.28;;
47635;SDS011;33364;50.766;15.338;2023-01-25T00:46:55;9.43;;;4.22;;
47635;SDS011;33364;50.766;15.338;2023-01-25T00:49:23;7.25;;;4.20;;
47635;SDS011;33364;50.766;15.338;2023-01-25T00:51:50;10.25;;;4.28;;
47635;SDS011;33364;50.766;15.338;2023-01-25T00:54:17;7.10;;;4.10;;
47635;SDS011;33364;50.766;15.338;2023-01-25T00:56:43;11.70;;;5.32;;
47635;SDS011;33364;50.766;15.338;2023-01-25T00:59:10;7.60;;;4.18;;
47635;SDS011;33364;50.766;15.338;2023-01-25T01:01:37;6.82;;;3.42;;
47635;SDS011;33364;50.766;15.338;2023-01-25T01:04:05;7.28;;;3.88;;
47635;SDS011;33364;50.766;15.338;2023-01-25T01:06:30;6.57;;;3.60;;
47635;SDS011;33364;50.766;15.338;2023-01-25T01:08:57;6.57;;;3.92;;
47635;SDS011;33364;50.766;15.338;2023-01-25T01:11:22;6.30;;;3.60;;
47635;SDS011;33364;50.766;15.338;2023-01-25T01:13:48;9.30;;;3.97;;
47635;SDS011;33364;50.766;15.338;2023-01-25T01:16:14;7.40;;;3.40;;
47635;SDS011;33364;50.766;15.338;2023-01-25T01:18:41;8.02;;;4.32;;
47635;SDS011;33364;50.766;15.338;2023-01-25T01:21:09;5.53;;;3.28;;
47635;SDS011;33364;50.766;15.338;2023-01-25T01:23:36;6.35;;;3.28;;
47635;SDS011;33364;50.766;15.338;2023-01-25T01:26:02;6.65;;;3.88;;
47635;SDS011;33364;50.766;15.338;2023-01-25T01:28:31;8.95;;;4.50;;
47635;SDS011;33364;50.766;15.338;2023-01-25T01:31:01;8.43;;;3.92;;
47635;SDS011;33364;50.766;15.338;2023-01-25T01:33:32;7.20;;;3.67;;
47635;SDS011;33364;50.766;15.338;2023-01-25T01:35:57;8.90;;;4.32;;
47635;SDS011;33364;50.766;15.338;2023-01-25T01:38:23;9.80;;;3.90;;
47635;SDS011;33364;50.766;15.338;2023-01-25T01:40:49;6.30;;;3.55;;
47635;SDS011;33364;50.766;15.338;2023-01-25T01:43:22;6.72;;;3.47;;
47635;SDS011;33364;50.766;15.338;2023-01-25T01:45:56;7.25;;;3.65;;
47635;SDS011;33364;50.766;15.338;2023-01-25T01:50:54;6.60;;;3.42;;
47635;SDS011;33364;50.766;15.338;2023-01-25T01:53:23;8.35;;;4.32;;
47635;SDS011;33364;50.766;15.338;2023-01-25T01:55:54;8.25;;;4.45;;
47635;SDS011;33364;50.766;15.338;2023-01-25T01:58:25;7.67;;;4.17;;
47635;SDS011;33364;50.766;15.338;2023-01-25T02:00:51;6.68;;;3.47;;
47635;SDS011;33364;50.766;15.338;2023-01-25T02:03:17;7.47;;;2.75;;
47635;SDS011;33364;50.766;15.338;2023-01-25T02:05:55;5.85;;;2.38;;
47635;SDS011;33364;50.766;15.338;2023-01-25T02:08:24;5.65;;;2.95;;
47635;SDS011;33364;50.766;15.338;2023-01-25T02:10:50;5.78;;;2.67;;
47635;SDS011;33364;50.766;15.338;2023-01-25T02:13:17;7.05;;;2.78;;
47635;SDS011;33364;50.766;15.338;2023-01-25T02:15:45;4.63;;;2.97;;
47635;SDS011;33364;50.766;15.338;2023-01-25T02:18:13;6.75;;;2.28;;
47635;SDS011;33364;50.766;15.338;2023-01-25T02:20:43;5.20;;;2.75;;
47635;SDS011;33364;50.766;15.338;2023-01-25T02:23:16;5.15;;;2.83;;
47635;SDS011;33364;50.766;15.338;2023-01-25T02:25:48;4.97;;;2.58;;
47635;SDS011;33364;50.766;15.338;2023-01-25T02:28:15;4.75;;;2.17;;
47635;SDS011;33364;50.766;15.338;2023-01-25T02:30:47;3.45;;;2.05;;
47635;SDS011;33364;50.766;15.338;2023-01-25T02:33:13;4.47;;;2.53;;
47635;SDS011;33364;50.766;15.338;2023-01-25T02:35:46;4.70;;;3.03;;
47635;SDS011;33364;50.766;15.338;2023-01-25T02:38:17;4.93;;;3.20;;
47635;SDS011;33364;50.766;15.338;2023-01-25T02:40:46;7.25;;;3.80;;
47635;SDS011;33364;50.766;15.338;2023-01-25T02:43:17;6.63;;;3.88;;
47635;SDS011;33364;50.766;15.338;2023-01-25T02:45:44;5.45;;;3.45;;
47635;SDS011;33364;50.766;15.338;2023-01-25T02:48:12;5.65;;;3.05;;
47635;SDS011;33364;50.766;15.338;2023-01-25T02:50:38;4.30;;;2.90;;
47635;SDS011;33364;50.766;15.338;2023-01-25T02:53:04;4.93;;;3.00;;
47635;SDS011;33364;50.766;15.338;2023-01-25T02:55:29;5.82;;;2.88;;
47635;SDS011;33364;50.766;15.338;2023-01-25T02:57:55;3.42;;;2.10;;
47635;SDS011;33364;50.766;15.338;2023-01-25T03:00:21;5.55;;;2.72;;
47635;SDS011;33364;50.766;15.338;2023-01-25T03:02:47;5.18;;;2.65;;
47635;SDS011;33364;50.766;15.338;2023-01-25T03:05:12;4.57;;;2.53;;
47635;SDS011;33364;50.766;15.338;2023-01-25T03:07:38;4.85;;;2.83;;
47635;SDS011;33364;50.766;15.338;2023-01-25T03:10:04;3.67;;;2.15;;
47635;SDS011;33364;50.766;15.338;2023-01-25T03:12:30;3.83;;;2.22;;
47635;SDS011;33364;50.766;15.338;2023-01-25T03:14:56;4.90;;;2.85;;
47635;SDS011;33364;50.766;15.338;2023-01-25T03:17:22;5.22;;;2.88;;
47635;SDS011;33364;50.766;15.338;2023-01-25T03:19:48;5.57;;;3.17;;
47635;SDS011;33364;50.766;15.338;2023-01-25T03:22:15;4.70;;;2.83;;
47635;SDS011;33364;50.766;15.338;2023-01-25T03:24:40;4.72;;;2.53;;
47635;SDS011;33364;50.766;15.338;2023-01-25T03:27:06;4.97;;;2.55;;
47635;SDS011;33364;50.766;15.338;2023-01-25T03:29:35;5.25;;;2.92;;
47635;SDS011;33364;50.766;15.338;2023-01-25T03:32:01;6.72;;;3.67;;
47635;SDS011;33364;50.766;15.338;2023-01-25T03:34:27;5.25;;;3.05;;
47635;SDS011;33364;50.766;15.338;2023-01-25T03:36:52;4.75;;;2.20;;
47635;SDS011;33364;50.766;15.338;2023-01-25T03:39:18;4.53;;;1.90;;
47635;SDS011;33364;50.766;15.338;2023-01-25T03:41:44;2.70;;;1.75;;
47635;SDS011;33364;50.766;15.338;2023-01-25T03:44:10;3.03;;;2.10;;
47635;SDS011;33364;50.766;15.338;2023-01-25T03:46:36;4.53;;;2.85;;
47635;SDS011;33364;50.766;15.338;2023-01-25T03:49:05;6.93;;;2.63;;
47635;SDS011;33364;50.766;15.338;2023-01-25T03:51:31;7.10;;;3.10;;
47635;SDS011;33364;50.766;15.338;2023-01-25T03:53:58;7.93;;;3.00;;
47635;SDS011;33364;50.766;15.338;2023-01-25T03:56:23;6.75;;;3.17;;
47635;SDS011;33364;50.766;15.338;2023-01-25T03:58:49;6.30;;;2.80;;
47635;SDS011;33364;50.766;15.338;2023-01-25T04:01:15;11.70;;;4.15;;
47635;SDS011;33364;50.766;15.338;2023-01-25T04:03:41;18.88;;;6.32;;
47635;SDS011;33364;50.766;15.338;2023-01-25T04:06:06;7.97;;;2.80;;
47635;SDS011;33364;50.766;15.338;2023-01-25T04:08:32;7.25;;;3.35;;
47635;SDS011;33364;50.766;15.338;2023-01-25T04:11:03;21.52;;;7.00;;
47635;SDS011;33364;50.766;15.338;2023-01-25T04:13:31;10.75;;;4.15;;
47635;SDS011;33364;50.766;15.338;2023-01-25T04:16:01;4.95;;;2.20;;
47635;SDS011;33364;50.766;15.338;2023-01-25T04:18:32;3.83;;;2.03;;
47635;SDS011;33364;50.766;15.338;2023-01-25T04:20:58;3.83;;;2.33;;
47635;SDS011;33364;50.766;15.338;2023-01-25T04:23:24;3.63;;;2.28;;
47635;SDS011;33364;50.766;15.338;2023-01-25T04:28:21;4.07;;;2.20;;
47635;SDS011;33364;50.766;15.338;2023-01-25T04:30:47;6.00;;;3.00;;
47635;SDS011;33364;50.766;15.338;2023-01-25T04:33:13;5.78;;;2.95;;
47635;SDS011;33364;50.766;15.338;2023-01-25T04:35:38;5.47;;;2.97;;
47635;SDS011;33364;50.766;15.338;2023-01-25T04:38:04;7.53;;;3.03;;
47635;SDS011;33364;50.766;15.338;2023-01-25T04:40:30;6.47;;;3.10;;
47635;SDS011;33364;50.766;15.338;2023-01-25T04:42:56;4.78;;;2.70;;
47635;SDS011;33364;50.766;15.338;2023-01-25T04:45:22;2.92;;;2.35;;
47635;SDS011;33364;50.766;15.338;2023-01-25T04:47:54;3.65;;;2.53;;
47635;SDS011;33364;50.766;15.338;2023-01-25T04:50:21;3.88;;;2.25;;
47635;SDS011;33364;50.766;15.338;2023-01-25T04:52:47;4.70;;;2.67;;
47635;SDS011;33364;50.766;15.338;2023-01-25T04:55:12;4.75;;;2.78;;
47635;SDS011;33364;50.766;15.338;2023-01-25T04:57:38;4.65;;;2.47;;
47635;SDS011;33364;50.766;15.338;2023-01-25T05:00:04;4.80;;;2.80;;
47635;SDS011;33364;50.766;15.338;2023-01-25T05:02:30;8.85;;;4.93;;
47635;SDS011;33364;50.766;15.338;2023-01-25T05:04:56;10.90;;;5.47;;
47635;SDS011;33364;50.766;15.338;2023-01-25T05:07:22;17.13;;;8.43;;
47635;SDS011;33364;50.766;15.338;2023-01-25T05:09:48;7.85;;;4.22;;
47635;SDS011;33364;50.766;15.338;2023-01-25T05:12:14;7.95;;;3.28;;
47635;SDS011;33364;50.766;15.338;2023-01-25T05:14:39;10.73;;;4.43;;
47635;SDS011;33364;50.766;15.338;2023-01-25T05:17:05;3.10;;;2.05;;
47635;SDS011;33364;50.766;15.338;2023-01-25T05:19:32;2.90;;;1.50;;
47635;SDS011;33364;50.766;15.338;2023-01-25T05:21:59;4.60;;;2.25;;
47635;SDS011;33364;50.766;15.338;2023-01-25T05:24:26;8.63;;;3.00;;
47635;SDS011;33364;50.766;15.338;2023-01-25T05:26:56;9.52;;;3.30;;
47635;SDS011;33364;50.766;15.338;2023-01-25T05:31:52;10.93;;;4.53;;
47635;SDS011;33364;50.766;15.338;2023-01-25T05:34:18;12.32;;;5.18;;
47635;SDS011;33364;50.766;15.338;2023-01-25T05:36:44;14.40;;;5.93;;
47635;SDS011;33364;50.766;15.338;2023-01-25T05:39:09;16.52;;;6.80;;
47635;SDS011;33364;50.766;15.338;2023-01-25T05:41:35;19.55;;;7.90;;
47635;SDS011;33364;50.766;15.338;2023-01-25T05:44:01;15.13;;;5.78;;
47635;SDS011;33364;50.766;15.338;2023-01-25T05:46:28;24.58;;;9.98;;
47635;SDS011;33364;50.766;15.338;2023-01-25T05:48:54;32.67;;;13.73;;
47635;SDS011;33364;50.766;15.338;2023-01-25T05:51:20;27.40;;;10.38;;
47635;SDS011;33364;50.766;15.338;2023-01-25T05:53:45;12.05;;;5.90;;
47635;SDS011;33364;50.766;15.338;2023-01-25T05:56:11;6.82;;;3.28;;
47635;SDS011;33364;50.766;15.338;2023-01-25T05:58:37;5.57;;;3.10;;
47635;SDS011;33364;50.766;15.338;2023-01-25T06:01:04;10.30;;;4.97;;
47635;SDS011;33364;50.766;15.338;2023-01-25T06:03:33;9.23;;;5.18;;
47635;SDS011;33364;50.766;15.338;2023-01-25T06:06:00;8.43;;;3.38;;
47635;SDS011;33364;50.766;15.338;2023-01-25T06:08:30;6.32;;;3.08;;
47635;SDS011;33364;50.766;15.338;2023-01-25T06:10:56;7.97;;;3.30;;
47635;SDS011;33364;50.766;15.338;2023-01-25T06:13:22;7.13;;;3.60;;
47635;SDS011;33364;50.766;15.338;2023-01-25T06:15:55;8.73;;;3.75;;
47635;SDS011;33364;50.766;15.338;2023-01-25T06:18:22;4.30;;;2.42;;
47635;SDS011;33364;50.766;15.338;2023-01-25T06:20:49;5.85;;;3.05;;
47635;SDS011;33364;50.766;15.338;2023-01-25T06:23:15;8.05;;;3.95;;
47635;SDS011;33364;50.766;15.338;2023-01-25T06:25:41;9.13;;;4.07;;
47635;SDS011;33364;50.766;15.338;2023-01-25T06:28:08;11.10;;;4.80;;
47635;SDS011;33364;50.766;15.338;2023-01-25T06:30:34;24.48;;;9.55;;
47635;SDS011;33364;50.766;15.338;2023-01-25T06:33:00;34.72;;;13.82;;
47635;SDS011;33364;50.766;15.338;2023-01-25T06:35:27;63.75;;;22.38;;
47635;SDS011;33364;50.766;15.338;2023-01-25T06:37:56;29.42;;;11.77;;
47635;SDS011;33364;50.766;15.338;2023-01-25T06:40:23;12.05;;;5.15;;
47635;SDS011;33364;50.766;15.338;2023-01-25T06:42:50;9.88;;;4.65;;
47635;SDS011;33364;50.766;15.338;2023-01-25T06:45:16;10.85;;;4.35;;
47635;SDS011;33364;50.766;15.338;2023-01-25T06:47:42;8.43;;;4.05;;
47635;SDS011;33364;50.766;15.338;2023-01-25T06:50:08;10.45;;;6.30;;
47635;SDS011;33364;50.766;15.338;2023-01-25T06:52:34;8.18;;;4.70;;
47635;SDS011;33364;50.766;15.338;2023-01-25T06:55:02;11.05;;;4.57;;
47635;SDS011;33364;50.766;15.338;2023-01-25T06:57:28;8.65;;;3.80;;
47635;SDS011;33364;50.766;15.338;2023-01-25T06:59:54;11.02;;;4.45;;
47635;SDS011;33364;50.766;15.338;2023-01-25T07:02:20;14.10;;;5.78;;
47635;SDS011;33364;50.766;15.338;2023-01-25T07:04:46;11.23;;;5.68;;
47635;SDS011;33364;50.766;15.338;2023-01-25T07:07:12;13.50;;;4.60;;
47635;SDS011;33364;50.766;15.338;2023-01-25T07:09:38;14.18;;;5.22;;
47635;SDS011;33364;50.766;15.338;2023-01-25T07:12:04;16.50;;;5.53;;
47635;SDS011;33364;50.766;15.338;2023-01-25T07:14:30;12.90;;;5.70;;
47635;SDS011;33364;50.766;15.338;2023-01-25T07:16:56;19.40;;;8.75;;
47635;SDS011;33364;50.766;15.338;2023-01-25T07:19:22;16.52;;;7.60;;
47635;SDS011;33364;50.766;15.338;2023-01-25T07:21:48;10.02;;;4.70;;
47635;SDS011;33364;50.766;15.338;2023-01-25T07:24:15;7.68;;;3.72;;
47635;SDS011;33364;50.766;15.338;2023-01-25T07:26:42;7.65;;;4.13;;
47635;SDS011;33364;50.766;15.338;2023-01-25T07:29:13;10.52;;;5.10;;
47635;SDS011;33364;50.766;15.338;2023-01-25T07:31:40;11.30;;;5.18;;
47635;SDS011;33364;50.766;15.338;2023-01-25T07:34:07;12.00;;;5.60;;
47635;SDS011;33364;50.766;15.338;2023-01-25T07:36:35;11.30;;;5.07;;
47635;SDS011;33364;50.766;15.338;2023-01-25T07:39:02;9.40;;;4.72;;
47635;SDS011;33364;50.766;15.338;2023-01-25T07:41:27;11.02;;;5.25;;
47635;SDS011;33364;50.766;15.338;2023-01-25T07:43:53;12.73;;;5.95;;
47635;SDS011;33364;50.766;15.338;2023-01-25T07:46:20;10.82;;;5.05;;
47635;SDS011;33364;50.766;15.338;2023-01-25T07:48:47;12.13;;;4.88;;
47635;SDS011;33364;50.766;15.338;2023-01-25T07:51:14;13.50;;;5.80;;
47635;SDS011;33364;50.766;15.338;2023-01-25T07:53:54;11.55;;;5.72;;
47635;SDS011;33364;50.766;15.338;2023-01-25T07:56:24;19.48;;;5.72;;
47635;SDS011;33364;50.766;15.338;2023-01-25T07:58:53;12.32;;;5.50;;
47635;SDS011;33364;50.766;15.338;2023-01-25T08:01:20;11.52;;;5.57;;
47635;SDS011;33364;50.766;15.338;2023-01-25T08:03:47;12.02;;;6.78;;
47635;SDS011;33364;50.766;15.338;2023-01-25T08:06:14;18.42;;;7.95;;
47635;SDS011;33364;50.766;15.338;2023-01-25T08:08:42;18.33;;;7.70;;
47635;SDS011;33364;50.766;15.338;2023-01-25T08:11:12;13.32;;;7.05;;
47635;SDS011;33364;50.766;15.338;2023-01-25T08:13:40;14.10;;;6.95;;
47635;SDS011;33364;50.766;15.338;2023-01-25T08:16:11;17.60;;;7.50;;
47635;SDS011;33364;50.766;15.338;2023-01-25T08:18:37;16.70;;;8.02;;
47635;SDS011;33364;50.766;15.338;2023-01-25T08:21:03;14.52;;;7.60;;
47635;SDS011;33364;50.766;15.338;2023-01-25T08:23:29;14.32;;;6.72;;
47635;SDS011;33364;50.766;15.338;2023-01-25T08:25:58;18.92;;;7.57;;
47635;SDS011;33364;50.766;15.338;2023-01-25T08:28:26;15.93;;;6.85;;
47635;SDS011;33364;50.766;15.338;2023-01-25T08:30:52;16.25;;;7.90;;
47635;SDS011;33364;50.766;15.338;2023-01-25T08:33:17;13.50;;;7.30;;
47635;SDS011;33364;50.766;15.338;2023-01-25T08:35:52;19.98;;;8.73;;
47635;SDS011;33364;50.766;15.338;2023-01-25T08:38:19;16.05;;;7.25;;
47635;SDS011;33364;50.766;15.338;2023-01-25T08:40:45;16.35;;;8.75;;
47635;SDS011;33364;50.766;15.338;2023-01-25T08:43:11;15.52;;;8.52;;
47635;SDS011;33364;50.766;15.338;2023-01-25T08:45:37;18.95;;;7.90;;
47635;SDS011;33364;50.766;15.338;2023-01-25T08:48:02;15.10;;;7.05;;
47635;SDS011;33364;50.766;15.338;2023-01-25T08:50:28;17.65;;;8.38;;
47635;SDS011;33364;50.766;15.338;2023-01-25T08:52:54;21.33;;;9.30;;
47635;SDS011;33364;50.766;15.338;2023-01-25T08:55:20;15.70;;;7.93;;
47635;SDS011;33364;50.766;15.338;2023-01-25T08:57:45;18.55;;;7.55;;
47635;SDS011;33364;50.766;15.338;2023-01-25T09:00:12;13.13;;;7.00;;
47635;SDS011;33364;50.766;15.338;2023-01-25T09:02:38;13.55;;;7.25;;
47635;SDS011;33364;50.766;15.338;2023-01-25T09:05:04;15.98;;;6.70;;
47635;SDS011;33364;50.766;15.338;2023-01-25T09:07:30;12.15;;;6.88;;
47635;SDS011;33364;50.766;15.338;2023-01-25T09:09:57;12.38;;;6.35;;
47635;SDS011;33364;50.766;15.338;2023-01-25T09:12:23;16.38;;;7.13;;
47635;SDS011;33364;50.766;15.338;2023-01-25T09:14:49;12.38;;;6.15;;
47635;SDS011;33364;50.766;15.338;2023-01-25T09:17:14;12.77;;;6.03;;
47635;SDS011;33364;50.766;15.338;2023-01-25T09:19:40;11.75;;;5.82;;
47635;SDS011;33364;50.766;15.338;2023-01-25T09:22:06;13.70;;;6.88;;
47635;SDS011;33364;50.766;15.338;2023-01-25T09:24:33;17.85;;;6.65;;
47635;SDS011;33364;50.766;15.338;2023-01-25T09:26:58;12.52;;;5.80;;
47635;SDS011;33364;50.766;15.338;2023-01-25T09:29:24;12.38;;;5.90;;
47635;SDS011;33364;50.766;15.338;2023-01-25T09:31:50;12.55;;;6.38;;
47635;SDS011;33364;50.766;15.338;2023-01-25T09:34:17;12.95;;;6.55;;
47635;SDS011;33364;50.766;15.338;2023-01-25T09:36:42;14.88;;;7.00;;
47635;SDS011;33364;50.766;15.338;2023-01-25T09:39:09;15.32;;;7.35;;
47635;SDS011;33364;50.766;15.338;2023-01-25T09:46:52;13.00;;;6.75;;
47635;SDS011;33364;50.766;15.338;2023-01-25T09:55:07;13.13;;;6.20;;
47635;SDS011;33364;50.766;15.338;2023-01-25T09:57:38;11.88;;;6.85;;
47635;SDS011;33364;50.766;15.338;2023-01-25T10:00:12;12.70;;;6.85;;
47635;SDS011;33364;50.766;15.338;2023-01-25T10:02:53;16.98;;;7.60;;
47635;SDS011;33364;50.766;15.338;2023-01-25T10:05:26;13.70;;;6.90;;
47635;SDS011;33364;50.766;15.338;2023-01-25T10:08:10;12.40;;;6.90;;
47635;SDS011;33364;50.766;15.338;2023-01-25T10:10:51;9.80;;;5.68;;
47635;SDS011;33364;50.766;15.338;2023-01-25T10:13:23;13.45;;;7.70;;
47635;SDS011;33364;50.766;15.338;2023-01-25T10:15:51;14.07;;;7.63;;
47635;SDS011;33364;50.766;15.338;2023-01-25T10:20:56;16.35;;;7.78;;
47635;SDS011;33364;50.766;15.338;2023-01-25T10:23:30;13.38;;;7.72;;
47635;SDS011;33364;50.766;15.338;2023-01-25T10:31:19;12.45;;;7.55;;
47635;SDS011;33364;50.766;15.338;2023-01-25T10:33:53;16.20;;;8.25;;
47635;SDS011;33364;50.766;15.338;2023-01-25T10:36:22;13.73;;;8.00;;
47635;SDS011;33364;50.766;15.338;2023-01-25T10:38:53;13.75;;;7.38;;
47635;SDS011;33364;50.766;15.338;2023-01-25T10:41:24;16.77;;;8.85;;
47635;SDS011;33364;50.766;15.338;2023-01-25T10:43:54;15.85;;;7.93;;
47635;SDS011;33364;50.766;15.338;2023-01-25T10:46:39;11.20;;;7.53;;
47635;SDS011;33364;50.766;15.338;2023-01-25T10:49:28;16.67;;;8.27;;
47635;SDS011;33364;50.766;15.338;2023-01-25T10:52:19;14.27;;;7.68;;
47635;SDS011;33364;50.766;15.338;2023-01-25T10:54:47;17.13;;;9.73;;
47635;SDS011;33364;50.766;15.338;2023-01-25T10:57:17;13.38;;;7.88;;
47635;SDS011;33364;50.766;15.338;2023-01-25T10:59:45;13.15;;;7.57;;
47635;SDS011;33364;50.766;15.338;2023-01-25T11:02:46;14.20;;;8.15;;
47635;SDS011;33364;50.766;15.338;2023-01-25T11:05:34;14.00;;;8.50;;
47635;SDS011;33364;50.766;15.338;2023-01-25T11:10:46;15.73;;;7.68;;
47635;SDS011;33364;50.766;15.338;2023-01-25T11:15:37;15.45;;;8.82;;
47635;SDS011;33364;50.766;15.338;2023-01-25T11:18:05;13.88;;;8.30;;
47635;SDS011;33364;50.766;15.338;2023-01-25T11:20:36;13.10;;;8.30;;
47635;SDS011;33364;50.766;15.338;2023-01-25T11:23:02;15.50;;;8.30;;
47635;SDS011;33364;50.766;15.338;2023-01-25T11:28:15;18.02;;;8.90;;
47635;SDS011;33364;50.766;15.338;2023-01-25T11:30:51;14.65;;;7.95;;
47635;SDS011;33364;50.766;15.338;2023-01-25T11:33:18;14.80;;;8.15;;
47635;SDS011;33364;50.766;15.338;2023-01-25T11:35:57;16.73;;;8.73;;
47635;SDS011;33364;50.766;15.338;2023-01-25T11:41:16;15.75;;;8.65;;
47635;SDS011;33364;50.766;15.338;2023-01-25T11:46:51;15.57;;;9.45;;
47635;SDS011;33364;50.766;15.338;2023-01-25T11:49:30;16.85;;;9.60;;
47635;SDS011;33364;50.766;15.338;2023-01-25T11:54:47;17.48;;;10.07;;
47635;SDS011;33364;50.766;15.338;2023-01-25T12:00:40;21.98;;;11.85;;
47635;SDS011;33364;50.766;15.338;2023-01-25T12:03:34;21.90;;;11.00;;
47635;SDS011;33364;50.766;15.338;2023-01-25T12:09:21;16.52;;;10.00;;
47635;SDS011;33364;50.766;15.338;2023-01-25T12:25:12;22.42;;;11.90;;
47635;SDS011;33364;50.766;15.338;2023-01-25T12:30:55;21.20;;;12.30;;
47635;SDS011;33364;50.766;15.338;2023-01-25T12:36:36;24.13;;;11.43;;
47635;SDS011;33364;50.766;15.338;2023-01-25T12:38:57;18.20;;;10.50;;
47635;SDS011;33364;50.766;15.338;2023-01-25T12:41:33;19.50;;;11.32;;
47635;SDS011;33364;50.766;15.338;2023-01-25T12:46:40;22.73;;;13.40;;
47635;SDS011;33364;50.766;15.338;2023-01-25T12:49:16;39.05;;;19.40;;
47635;SDS011;33364;50.766;15.338;2023-01-25T12:51:48;23.50;;;13.85;;
47635;SDS011;33364;50.766;15.338;2023-01-25T12:54:28;25.75;;;13.93;;
47635;SDS011;33364;50.766;15.338;2023-01-25T12:57:10;24.40;;;12.85;;
47635;SDS011;33364;50.766;15.338;2023-01-25T13:08:03;24.05;;;13.73;;
47635;SDS011;33364;50.766;15.338;2023-01-25T13:10:39;23.10;;;12.85;;
47635;SDS011;33364;50.766;15.338;2023-01-25T13:13:24;40.85;;;20.45;;
47635;SDS011;33364;50.766;15.338;2023-01-25T13:15:53;27.75;;;15.95;;
47635;SDS011;33364;50.766;15.338;2023-01-25T13:20:58;43.55;;;22.50;;
47635;SDS011;33364;50.766;15.338;2023-01-25T13:23:28;40.42;;;21.55;;
47635;SDS011;33364;50.766;15.338;2023-01-25T13:28:50;45.60;;;24.23;;
47635;SDS011;33364;50.766;15.338;2023-01-25T13:32:03;82.75;;;44.22;;
47635;SDS011;33364;50.766;15.338;2023-01-25T13:34:10;33.95;;;18.83;;
47635;SDS011;33364;50.766;15.338;2023-01-25T13:42:32;34.33;;;18.85;;
47635;SDS011;33364;50.766;15.338;2023-01-25T13:44:49;36.30;;;19.05;;
47635;SDS011;33364;50.766;15.338;2023-01-25T13:47:28;41.90;;;23.85;;
47635;SDS011;33364;50.766;15.338;2023-01-25T13:50:08;55.28;;;34.45;;
47635;SDS011;33364;50.766;15.338;2023-01-25T13:52:56;35.28;;;17.73;;
47635;SDS011;33364;50.766;15.338;2023-01-25T13:55:22;28.48;;;15.82;;
47635;SDS011;33364;50.766;15.338;2023-01-25T13:57:49;30.42;;;17.20;;
47635;SDS011;33364;50.766;15.338;2023-01-25T14:00:16;31.83;;;16.63;;
47635;SDS011;33364;50.766;15.338;2023-01-25T14:02:42;28.42;;;15.38;;
47635;SDS011;33364;50.766;15.338;2023-01-25T14:05:20;33.40;;;17.92;;
47635;SDS011;33364;50.766;15.338;2023-01-25T14:07:49;29.38;;;16.20;;
47635;SDS011;33364;50.766;15.338;2023-01-25T14:10:18;31.25;;;16.70;;
47635;SDS011;33364;50.766;15.338;2023-01-25T14:12:48;33.25;;;15.98;;
47635;SDS011;33364;50.766;15.338;2023-01-25T14:15:23;33.05;;;16.17;;
47635;SDS011;33364;50.766;15.338;2023-01-25T14:18:02;43.72;;;20.38;;
47635;SDS011;33364;50.766;15.338;2023-01-25T14:20:34;46.10;;;23.40;;
47635;SDS011;33364;50.766;15.338;2023-01-25T14:23:00;37.38;;;19.48;;
47635;SDS011;33364;50.766;15.338;2023-01-25T14:25:26;36.38;;;18.85;;
47635;SDS011;33364;50.766;15.338;2023-01-25T14:27:52;36.42;;;19.48;;
47635;SDS011;33364;50.766;15.338;2023-01-25T14:30:22;35.58;;;18.63;;
47635;SDS011;33364;50.766;15.338;2023-01-25T14:32:51;40.75;;;20.98;;
47635;SDS011;33364;50.766;15.338;2023-01-25T14:37:56;48.08;;;22.23;;
47635;SDS011;33364;50.766;15.338;2023-01-25T14:40:23;63.30;;;25.98;;
47635;SDS011;33364;50.766;15.338;2023-01-25T14:42:51;69.30;;;28.27;;
47635;SDS011;33364;50.766;15.338;2023-01-25T14:45:18;57.88;;;27.52;;
47635;SDS011;33364;50.766;15.338;2023-01-25T14:47:51;36.00;;;19.27;;
47635;SDS011;33364;50.766;15.338;2023-01-25T14:52:58;39.72;;;18.98;;
47635;SDS011;33364;50.766;15.338;2023-01-25T14:55:31;34.38;;;19.35;;
47635;SDS011;33364;50.766;15.338;2023-01-25T14:57:59;44.00;;;20.52;;
47635;SDS011;33364;50.766;15.338;2023-01-25T15:00:27;39.75;;;21.02;;
47635;SDS011;33364;50.766;15.338;2023-01-25T15:02:56;36.70;;;19.17;;
47635;SDS011;33364;50.766;15.338;2023-01-25T15:05:28;37.53;;;19.98;;
47635;SDS011;33364;50.766;15.338;2023-01-25T15:10:32;35.92;;;19.20;;
47635;SDS011;33364;50.766;15.338;2023-01-25T15:15:48;57.42;;;24.60;;
47635;SDS011;33364;50.766;15.338;2023-01-25T15:21:25;43.08;;;19.50;;
47635;SDS011;33364;50.766;15.338;2023-01-25T15:23:57;37.35;;;18.33;;
47635;SDS011;33364;50.766;15.338;2023-01-25T15:26:29;48.55;;;22.30;;
47635;SDS011;33364;50.766;15.338;2023-01-25T15:28:57;66.75;;;27.45;;
47635;SDS011;33364;50.766;15.338;2023-01-25T15:31:26;65.60;;;26.25;;
47635;SDS011;33364;50.766;15.338;2023-01-25T15:33:54;45.47;;;20.90;;
47635;SDS011;33364;50.766;15.338;2023-01-25T15:36:21;45.78;;;20.38;;
47635;SDS011;33364;50.766;15.338;2023-01-25T15:38:47;37.80;;;19.33;;
47635;SDS011;33364;50.766;15.338;2023-01-25T15:41:13;45.67;;;20.58;;
47635;SDS011;33364;50.766;15.338;2023-01-25T15:43:39;46.85;;;21.73;;
47635;SDS011;33364;50.766;15.338;2023-01-25T15:46:05;44.70;;;21.25;;
47635;SDS011;33364;50.766;15.338;2023-01-25T15:48:41;44.92;;;20.48;;
47635;SDS011;33364;50.766;15.338;2023-01-25T15:51:08;41.90;;;21.02;;
47635;SDS011;33364;50.766;15.338;2023-01-25T15:53:35;42.53;;;21.42;;
47635;SDS011;33364;50.766;15.338;2023-01-25T15:56:02;44.08;;;22.05;;
47635;SDS011;33364;50.766;15.338;2023-01-25T15:58:37;43.25;;;22.33;;
47635;SDS011;33364;50.766;15.338;2023-01-25T16:01:05;33.03;;;15.85;;
47635;SDS011;33364;50.766;15.338;2023-01-25T16:03:31;44.00;;;20.80;;
47635;SDS011;33364;50.766;15.338;2023-01-25T16:05:59;42.28;;;21.92;;
47635;SDS011;33364;50.766;15.338;2023-01-25T16:08:29;43.78;;;20.58;;
47635;SDS011;33364;50.766;15.338;2023-01-25T16:10:59;50.17;;;22.63;;
47635;SDS011;33364;50.766;15.338;2023-01-25T16:13:24;43.55;;;21.63;;
47635;SDS011;33364;50.766;15.338;2023-01-25T16:15:51;46.22;;;21.15;;
47635;SDS011;33364;50.766;15.338;2023-01-25T16:18:18;46.92;;;21.80;;
47635;SDS011;33364;50.766;15.338;2023-01-25T16:20:44;40.80;;;21.65;;
47635;SDS011;33364;50.766;15.338;2023-01-25T16:23:10;43.65;;;20.73;;
47635;SDS011;33364;50.766;15.338;2023-01-25T16:25:38;47.67;;;21.92;;